sensor_id;sensor_type;location;lat;lon;timestamp;P1;durP1;ratioP1;P2;durP2;ratioP2
68216;SDS011;55037;52.354;4.992;2023-02-28T00:01:12;3.15;;;1.42;;
68216;SDS011;55037;52.354;4.992;2023-02-28T00:03:41;3.03;;;1.60;;
68216;SDS011;55037;52.354;4.992;2023-02-28T00:06:08;4.22;;;1.73;;
68216;SDS011;55037;52.354;4.992;2023-02-28T00:08:36;4.45;;;1.80;;
68216;SDS011;55037;52.354;4.992;2023-02-28T00:11:05;4.10;;;1.60;;
68216;SDS011;55037;52.354;4.992;2023-02-28T00:13:36;5.43;;;1.80;;
68216;SDS011;55037;52.354;4.992;2023-02-28T00:16:06;4.40;;;1.70;;
68216;SDS011;55037;52.354;4.992;2023-02-28T00:18:38;4.82;;;1.70;;
68216;SDS011;55037;52.354;4.992;2023-02-28T00:21:06;6.30;;;1.85;;
68216;SDS011;55037;52.354;4.992;2023-02-28T00:23:34;5.07;;;1.85;;
68216;SDS011;55037;52.354;4.992;2023-02-28T00:26:01;6.28;;;1.90;;
68216;SDS011;55037;52.354;4.992;2023-02-28T00:28:29;7.33;;;2.37;;
68216;SDS011;55037;52.354;4.992;2023-02-28T00:30:58;5.85;;;2.15;;
68216;SDS011;55037;52.354;4.992;2023-02-28T00:33:28;7.35;;;2.60;;
68216;SDS011;55037;52.354;4.992;2023-02-28T00:36:09;5.72;;;2.08;;
68216;SDS011;55037;52.354;4.992;2023-02-28T00:38:38;5.15;;;2.20;;
68216;SDS011;55037;52.354;4.992;2023-02-28T00:41:07;5.77;;;2.00;;
68216;SDS011;55037;52.354;4.992;2023-02-28T00:43:36;6.20;;;1.98;;
68216;SDS011;55037;52.354;4.992;2023-02-28T00:46:04;4.90;;;2.17;;
68216;SDS011;55037;52.354;4.992;2023-02-28T00:48:32;6.53;;;2.20;;
68216;SDS011;55037;52.354;4.992;2023-02-28T00:51:00;6.18;;;1.98;;
68216;SDS011;55037;52.354;4.992;2023-02-28T00:53:28;5.73;;;2.00;;
68216;SDS011;55037;52.354;4.992;2023-02-28T00:55:56;6.20;;;2.08;;
68216;SDS011;55037;52.354;4.992;2023-02-28T00:58:25;5.70;;;1.73;;
68216;SDS011;55037;52.354;4.992;2023-02-28T01:00:53;5.30;;;1.90;;
68216;SDS011;55037;52.354;4.992;2023-02-28T01:03:20;5.60;;;2.00;;
68216;SDS011;55037;52.354;4.992;2023-02-28T01:05:49;5.03;;;1.70;;
68216;SDS011;55037;52.354;4.992;2023-02-28T01:08:16;6.38;;;2.22;;
68216;SDS011;55037;52.354;4.992;2023-02-28T01:10:44;6.57;;;2.15;;
68216;SDS011;55037;52.354;4.992;2023-02-28T01:13:11;6.97;;;1.90;;
68216;SDS011;55037;52.354;4.992;2023-02-28T01:15:44;7.13;;;2.00;;
68216;SDS011;55037;52.354;4.992;2023-02-28T01:18:19;4.30;;;1.97;;
68216;SDS011;55037;52.354;4.992;2023-02-28T01:20:46;4.82;;;1.60;;
68216;SDS011;55037;52.354;4.992;2023-02-28T01:23:15;4.32;;;1.58;;
68216;SDS011;55037;52.354;4.992;2023-02-28T01:25:42;3.95;;;2.03;;
68216;SDS011;55037;52.354;4.992;2023-02-28T01:28:09;5.63;;;2.15;;
68216;SDS011;55037;52.354;4.992;2023-02-28T01:30:37;4.47;;;1.90;;
68216;SDS011;55037;52.354;4.992;2023-02-28T01:33:05;6.22;;;1.92;;
68216;SDS011;55037;52.354;4.992;2023-02-28T01:35:33;3.70;;;1.90;;
68216;SDS011;55037;52.354;4.992;2023-02-28T01:38:02;5.10;;;1.80;;
68216;SDS011;55037;52.354;4.992;2023-02-28T01:40:47;5.35;;;2.17;;
68216;SDS011;55037;52.354;4.992;2023-02-28T01:43:22;8.57;;;2.47;;
68216;SDS011;55037;52.354;4.992;2023-02-28T01:45:52;4.38;;;1.95;;
68216;SDS011;55037;52.354;4.992;2023-02-28T01:48:21;11.90;;;2.20;;
68216;SDS011;55037;52.354;4.992;2023-02-28T01:50:54;6.88;;;2.30;;
68216;SDS011;55037;52.354;4.992;2023-02-28T01:53:29;7.38;;;1.95;;
68216;SDS011;55037;52.354;4.992;2023-02-28T01:56:00;6.63;;;2.67;;
68216;SDS011;55037;52.354;4.992;2023-02-28T01:58:32;4.93;;;1.60;;
68216;SDS011;55037;52.354;4.992;2023-02-28T02:01:00;7.05;;;2.58;;
68216;SDS011;55037;52.354;4.992;2023-02-28T02:03:29;3.95;;;2.00;;
68216;SDS011;55037;52.354;4.992;2023-02-28T02:05:57;7.18;;;2.40;;
68216;SDS011;55037;52.354;4.992;2023-02-28T02:08:25;5.17;;;2.03;;
68216;SDS011;55037;52.354;4.992;2023-02-28T02:10:56;5.68;;;2.10;;
68216;SDS011;55037;52.354;4.992;2023-02-28T02:16:24;5.47;;;2.33;;
68216;SDS011;55037;52.354;4.992;2023-02-28T02:22:00;6.93;;;2.17;;
68216;SDS011;55037;52.354;4.992;2023-02-28T02:27:27;9.07;;;2.28;;
68216;SDS011;55037;52.354;4.992;2023-02-28T02:33:10;5.30;;;2.70;;
68216;SDS011;55037;52.354;4.992;2023-02-28T02:35:54;6.77;;;2.10;;
68216;SDS011;55037;52.354;4.992;2023-02-28T02:41:19;5.93;;;2.50;;
68216;SDS011;55037;52.354;4.992;2023-02-28T02:43:52;8.40;;;2.58;;
68216;SDS011;55037;52.354;4.992;2023-02-28T02:46:32;8.15;;;2.38;;
68216;SDS011;55037;52.354;4.992;2023-02-28T02:49:05;5.47;;;2.43;;
68216;SDS011;55037;52.354;4.992;2023-02-28T02:51:36;5.65;;;2.75;;
68216;SDS011;55037;52.354;4.992;2023-02-28T02:54:08;7.43;;;2.63;;
68216;SDS011;55037;52.354;4.992;2023-02-28T02:56:43;7.07;;;2.35;;
68216;SDS011;55037;52.354;4.992;2023-02-28T02:59:14;8.55;;;3.05;;
68216;SDS011;55037;52.354;4.992;2023-02-28T03:01:49;7.70;;;2.57;;
68216;SDS011;55037;52.354;4.992;2023-02-28T03:04:20;6.32;;;2.30;;
68216;SDS011;55037;52.354;4.992;2023-02-28T03:06:52;8.18;;;2.80;;
68216;SDS011;55037;52.354;4.992;2023-02-28T03:09:22;7.97;;;2.30;;
68216;SDS011;55037;52.354;4.992;2023-02-28T03:11:50;8.27;;;2.70;;
68216;SDS011;55037;52.354;4.992;2023-02-28T03:14:22;8.60;;;2.50;;
68216;SDS011;55037;52.354;4.992;2023-02-28T03:19:45;6.07;;;2.08;;
68216;SDS011;55037;52.354;4.992;2023-02-28T03:25:18;5.07;;;2.13;;
68216;SDS011;55037;52.354;4.992;2023-02-28T03:28:01;5.70;;;1.73;;
68216;SDS011;55037;52.354;4.992;2023-02-28T03:33:44;6.75;;;2.00;;
68216;SDS011;55037;52.354;4.992;2023-02-28T03:36:25;7.13;;;2.22;;
68216;SDS011;55037;52.354;4.992;2023-02-28T03:39:03;4.32;;;2.40;;
68216;SDS011;55037;52.354;4.992;2023-02-28T03:41:52;6.33;;;2.13;;
68216;SDS011;55037;52.354;4.992;2023-02-28T03:44:38;4.05;;;2.30;;
68216;SDS011;55037;52.354;4.992;2023-02-28T03:47:09;4.35;;;2.13;;
68216;SDS011;55037;52.354;4.992;2023-02-28T03:49:43;6.28;;;2.40;;
68216;SDS011;55037;52.354;4.992;2023-02-28T03:52:14;6.82;;;2.75;;
68216;SDS011;55037;52.354;4.992;2023-02-28T03:54:45;6.33;;;2.60;;
68216;SDS011;55037;52.354;4.992;2023-02-28T03:57:34;14.13;;;2.88;;
68216;SDS011;55037;52.354;4.992;2023-02-28T04:00:27;6.10;;;2.80;;
68216;SDS011;55037;52.354;4.992;2023-02-28T04:02:57;6.13;;;2.50;;
68216;SDS011;55037;52.354;4.992;2023-02-28T04:05:25;5.45;;;2.50;;
68216;SDS011;55037;52.354;4.992;2023-02-28T04:07:54;7.60;;;3.53;;
68216;SDS011;55037;52.354;4.992;2023-02-28T04:10:29;4.32;;;2.78;;
68216;SDS011;55037;52.354;4.992;2023-02-28T04:12:56;6.05;;;2.80;;
68216;SDS011;55037;52.354;4.992;2023-02-28T04:15:24;4.70;;;2.63;;
68216;SDS011;55037;52.354;4.992;2023-02-28T04:17:51;8.20;;;2.60;;
68216;SDS011;55037;52.354;4.992;2023-02-28T04:20:18;3.97;;;2.90;;
68216;SDS011;55037;52.354;4.992;2023-02-28T04:22:45;6.45;;;3.03;;
68216;SDS011;55037;52.354;4.992;2023-02-28T04:25:13;7.18;;;2.83;;
68216;SDS011;55037;52.354;4.992;2023-02-28T04:27:40;8.10;;;2.80;;
68216;SDS011;55037;52.354;4.992;2023-02-28T04:30:07;7.82;;;3.08;;
68216;SDS011;55037;52.354;4.992;2023-02-28T04:32:35;4.97;;;2.70;;
68216;SDS011;55037;52.354;4.992;2023-02-28T04:35:02;6.32;;;3.03;;
68216;SDS011;55037;52.354;4.992;2023-02-28T04:37:30;6.25;;;2.70;;
68216;SDS011;55037;52.354;4.992;2023-02-28T04:40:01;5.53;;;3.00;;
68216;SDS011;55037;52.354;4.992;2023-02-28T04:42:29;6.68;;;2.70;;
68216;SDS011;55037;52.354;4.992;2023-02-28T04:45:02;4.97;;;3.00;;
68216;SDS011;55037;52.354;4.992;2023-02-28T04:47:30;5.72;;;3.00;;
68216;SDS011;55037;52.354;4.992;2023-02-28T04:49:57;8.18;;;3.22;;
68216;SDS011;55037;52.354;4.992;2023-02-28T04:52:24;11.68;;;3.60;;
68216;SDS011;55037;52.354;4.992;2023-02-28T04:54:53;6.75;;;3.40;;
68216;SDS011;55037;52.354;4.992;2023-02-28T04:57:20;6.50;;;3.20;;
68216;SDS011;55037;52.354;4.992;2023-02-28T04:59:48;5.60;;;2.95;;
68216;SDS011;55037;52.354;4.992;2023-02-28T05:02:15;8.68;;;3.28;;
68216;SDS011;55037;52.354;4.992;2023-02-28T05:04:42;6.78;;;3.30;;
68216;SDS011;55037;52.354;4.992;2023-02-28T05:07:09;6.57;;;3.13;;
68216;SDS011;55037;52.354;4.992;2023-02-28T05:09:36;7.53;;;3.87;;
68216;SDS011;55037;52.354;4.992;2023-02-28T05:12:04;7.20;;;3.67;;
68216;SDS011;55037;52.354;4.992;2023-02-28T05:14:31;5.70;;;3.30;;
68216;SDS011;55037;52.354;4.992;2023-02-28T05:16:58;10.30;;;3.85;;
68216;SDS011;55037;52.354;4.992;2023-02-28T05:19:25;7.10;;;3.33;;
68216;SDS011;55037;52.354;4.992;2023-02-28T05:21:54;6.73;;;4.00;;
68216;SDS011;55037;52.354;4.992;2023-02-28T05:24:22;6.57;;;3.70;;
68216;SDS011;55037;52.354;4.992;2023-02-28T05:26:50;7.32;;;3.58;;
68216;SDS011;55037;52.354;4.992;2023-02-28T05:29:19;5.38;;;3.38;;
68216;SDS011;55037;52.354;4.992;2023-02-28T05:31:47;6.85;;;3.78;;
68216;SDS011;55037;52.354;4.992;2023-02-28T05:34:14;8.20;;;4.43;;
68216;SDS011;55037;52.354;4.992;2023-02-28T05:36:42;10.80;;;5.20;;
68216;SDS011;55037;52.354;4.992;2023-02-28T05:39:10;9.10;;;5.40;;
68216;SDS011;55037;52.354;4.992;2023-02-28T05:41:39;13.00;;;4.60;;
68216;SDS011;55037;52.354;4.992;2023-02-28T05:44:08;8.05;;;4.70;;
68216;SDS011;55037;52.354;4.992;2023-02-28T05:46:36;8.47;;;5.17;;
68216;SDS011;55037;52.354;4.992;2023-02-28T05:49:03;11.40;;;5.88;;
68216;SDS011;55037;52.354;4.992;2023-02-28T05:51:30;10.77;;;5.70;;
68216;SDS011;55037;52.354;4.992;2023-02-28T05:53:59;9.45;;;5.22;;
68216;SDS011;55037;52.354;4.992;2023-02-28T05:56:27;12.93;;;5.60;;
68216;SDS011;55037;52.354;4.992;2023-02-28T05:58:55;12.67;;;6.10;;
68216;SDS011;55037;52.354;4.992;2023-02-28T06:04:04;9.70;;;4.95;;
68216;SDS011;55037;52.354;4.992;2023-02-28T06:06:33;9.43;;;4.88;;
68216;SDS011;55037;52.354;4.992;2023-02-28T06:09:03;15.20;;;5.85;;
68216;SDS011;55037;52.354;4.992;2023-02-28T06:11:31;12.27;;;5.93;;
68216;SDS011;55037;52.354;4.992;2023-02-28T06:13:59;10.80;;;5.68;;
68216;SDS011;55037;52.354;4.992;2023-02-28T06:16:28;11.23;;;6.75;;
68216;SDS011;55037;52.354;4.992;2023-02-28T06:18:57;12.70;;;7.63;;
68216;SDS011;55037;52.354;4.992;2023-02-28T06:21:26;9.15;;;5.82;;
68216;SDS011;55037;52.354;4.992;2023-02-28T06:23:55;10.20;;;5.07;;
68216;SDS011;55037;52.354;4.992;2023-02-28T06:26:24;15.43;;;7.47;;
68216;SDS011;55037;52.354;4.992;2023-02-28T06:28:51;15.82;;;7.78;;
68216;SDS011;55037;52.354;4.992;2023-02-28T06:31:19;15.45;;;7.80;;
68216;SDS011;55037;52.354;4.992;2023-02-28T06:33:47;9.98;;;6.32;;
68216;SDS011;55037;52.354;4.992;2023-02-28T06:36:15;14.17;;;7.23;;
68216;SDS011;55037;52.354;4.992;2023-02-28T06:38:43;9.20;;;5.35;;
68216;SDS011;55037;52.354;4.992;2023-02-28T06:41:10;5.95;;;4.07;;
68216;SDS011;55037;52.354;4.992;2023-02-28T06:43:39;8.13;;;3.97;;
68216;SDS011;55037;52.354;4.992;2023-02-28T06:46:09;6.85;;;4.40;;
68216;SDS011;55037;52.354;4.992;2023-02-28T06:48:40;4.10;;;2.83;;
68216;SDS011;55037;52.354;4.992;2023-02-28T06:51:15;5.20;;;2.25;;
68216;SDS011;55037;52.354;4.992;2023-02-28T06:53:44;3.30;;;2.30;;
68216;SDS011;55037;52.354;4.992;2023-02-28T06:56:12;5.85;;;3.83;;
68216;SDS011;55037;52.354;4.992;2023-02-28T06:58:41;5.07;;;3.80;;
68216;SDS011;55037;52.354;4.992;2023-02-28T07:01:10;8.33;;;4.20;;
68216;SDS011;55037;52.354;4.992;2023-02-28T07:03:37;8.55;;;4.00;;
68216;SDS011;55037;52.354;4.992;2023-02-28T07:06:05;5.78;;;3.10;;
68216;SDS011;55037;52.354;4.992;2023-02-28T07:08:33;9.95;;;3.58;;
68216;SDS011;55037;52.354;4.992;2023-02-28T07:11:00;6.85;;;3.85;;
68216;SDS011;55037;52.354;4.992;2023-02-28T07:13:28;6.60;;;3.53;;
68216;SDS011;55037;52.354;4.992;2023-02-28T07:16:00;9.10;;;4.10;;
68216;SDS011;55037;52.354;4.992;2023-02-28T07:18:32;7.28;;;4.47;;
68216;SDS011;55037;52.354;4.992;2023-02-28T07:21:01;5.97;;;4.32;;
68216;SDS011;55037;52.354;4.992;2023-02-28T07:23:29;8.85;;;4.35;;
68216;SDS011;55037;52.354;4.992;2023-02-28T07:25:56;9.87;;;4.30;;
68216;SDS011;55037;52.354;4.992;2023-02-28T07:28:24;7.03;;;3.08;;
68216;SDS011;55037;52.354;4.992;2023-02-28T07:30:51;6.07;;;4.03;;
68216;SDS011;55037;52.354;4.992;2023-02-28T07:33:19;4.43;;;2.97;;
68216;SDS011;55037;52.354;4.992;2023-02-28T07:35:46;4.95;;;2.67;;
68216;SDS011;55037;52.354;4.992;2023-02-28T07:38:13;5.23;;;3.80;;
68216;SDS011;55037;52.354;4.992;2023-02-28T07:40:40;6.03;;;3.83;;
68216;SDS011;55037;52.354;4.992;2023-02-28T07:43:08;4.75;;;3.17;;
68216;SDS011;55037;52.354;4.992;2023-02-28T07:45:35;7.00;;;4.53;;
68216;SDS011;55037;52.354;4.992;2023-02-28T07:48:02;5.28;;;3.58;;
68216;SDS011;55037;52.354;4.992;2023-02-28T07:50:29;8.90;;;4.80;;
68216;SDS011;55037;52.354;4.992;2023-02-28T07:52:58;6.07;;;4.18;;
68216;SDS011;55037;52.354;4.992;2023-02-28T07:55:26;8.32;;;5.05;;
68216;SDS011;55037;52.354;4.992;2023-02-28T07:57:53;9.63;;;5.35;;
68216;SDS011;55037;52.354;4.992;2023-02-28T08:00:21;7.68;;;5.22;;
68216;SDS011;55037;52.354;4.992;2023-02-28T08:02:49;8.37;;;5.50;;
68216;SDS011;55037;52.354;4.992;2023-02-28T08:05:16;12.02;;;6.03;;
68216;SDS011;55037;52.354;4.992;2023-02-28T08:07:48;12.23;;;6.03;;
68216;SDS011;55037;52.354;4.992;2023-02-28T08:10:16;8.48;;;5.55;;
68216;SDS011;55037;52.354;4.992;2023-02-28T08:12:43;9.35;;;6.38;;
68216;SDS011;55037;52.354;4.992;2023-02-28T08:15:11;8.43;;;5.80;;
68216;SDS011;55037;52.354;4.992;2023-02-28T08:17:38;9.82;;;5.93;;
68216;SDS011;55037;52.354;4.992;2023-02-28T08:20:05;13.32;;;6.82;;
68216;SDS011;55037;52.354;4.992;2023-02-28T08:22:34;11.82;;;6.38;;
68216;SDS011;55037;52.354;4.992;2023-02-28T08:25:01;11.65;;;6.38;;
68216;SDS011;55037;52.354;4.992;2023-02-28T08:27:28;11.13;;;6.63;;
68216;SDS011;55037;52.354;4.992;2023-02-28T08:29:55;9.48;;;6.35;;
68216;SDS011;55037;52.354;4.992;2023-02-28T08:32:23;10.85;;;6.40;;
68216;SDS011;55037;52.354;4.992;2023-02-28T08:34:56;13.95;;;7.05;;
68216;SDS011;55037;52.354;4.992;2023-02-28T08:37:23;14.20;;;6.55;;
68216;SDS011;55037;52.354;4.992;2023-02-28T08:39:51;9.80;;;6.63;;
68216;SDS011;55037;52.354;4.992;2023-02-28T08:42:22;12.48;;;6.28;;
68216;SDS011;55037;52.354;4.992;2023-02-28T08:44:49;10.65;;;6.50;;
68216;SDS011;55037;52.354;4.992;2023-02-28T08:47:17;10.98;;;6.53;;
68216;SDS011;55037;52.354;4.992;2023-02-28T08:49:44;9.63;;;5.80;;
68216;SDS011;55037;52.354;4.992;2023-02-28T08:52:11;10.37;;;6.13;;
68216;SDS011;55037;52.354;4.992;2023-02-28T08:54:39;10.52;;;5.97;;
68216;SDS011;55037;52.354;4.992;2023-02-28T08:57:06;9.90;;;5.60;;
68216;SDS011;55037;52.354;4.992;2023-02-28T08:59:33;8.77;;;5.53;;
68216;SDS011;55037;52.354;4.992;2023-02-28T09:02:00;10.45;;;5.53;;
68216;SDS011;55037;52.354;4.992;2023-02-28T09:04:27;8.70;;;5.30;;
68216;SDS011;55037;52.354;4.992;2023-02-28T09:06:57;10.27;;;6.05;;
68216;SDS011;55037;52.354;4.992;2023-02-28T09:09:24;9.68;;;5.75;;
68216;SDS011;55037;52.354;4.992;2023-02-28T09:11:52;9.80;;;5.70;;
68216;SDS011;55037;52.354;4.992;2023-02-28T09:14:21;9.40;;;6.00;;
68216;SDS011;55037;52.354;4.992;2023-02-28T09:16:48;11.63;;;6.40;;
68216;SDS011;55037;52.354;4.992;2023-02-28T09:19:16;11.65;;;6.25;;
68216;SDS011;55037;52.354;4.992;2023-02-28T09:21:43;9.65;;;6.20;;
68216;SDS011;55037;52.354;4.992;2023-02-28T09:24:10;11.70;;;6.43;;
68216;SDS011;55037;52.354;4.992;2023-02-28T09:26:40;13.23;;;6.25;;
68216;SDS011;55037;52.354;4.992;2023-02-28T09:29:21;10.73;;;6.33;;
68216;SDS011;55037;52.354;4.992;2023-02-28T09:31:48;10.30;;;6.10;;
68216;SDS011;55037;52.354;4.992;2023-02-28T09:34:16;12.38;;;5.70;;
68216;SDS011;55037;52.354;4.992;2023-02-28T09:36:44;10.25;;;5.65;;
68216;SDS011;55037;52.354;4.992;2023-02-28T09:39:13;9.60;;;5.70;;
68216;SDS011;55037;52.354;4.992;2023-02-28T09:41:45;10.90;;;6.07;;
68216;SDS011;55037;52.354;4.992;2023-02-28T09:45:02;9.27;;;5.65;;
68216;SDS011;55037;52.354;4.992;2023-02-28T09:49:57;10.85;;;4.97;;
68216;SDS011;55037;52.354;4.992;2023-02-28T09:52:29;7.15;;;5.22;;
68216;SDS011;55037;52.354;4.992;2023-02-28T09:55:08;9.67;;;5.13;;
68216;SDS011;55037;52.354;4.992;2023-02-28T10:01:24;9.30;;;4.80;;
68216;SDS011;55037;52.354;4.992;2023-02-28T10:03:59;7.72;;;4.50;;
68216;SDS011;55037;52.354;4.992;2023-02-28T10:06:33;7.43;;;4.13;;
68216;SDS011;55037;52.354;4.992;2023-02-28T10:09:12;6.37;;;3.80;;
68216;SDS011;55037;52.354;4.992;2023-02-28T10:11:44;6.75;;;4.70;;
68216;SDS011;55037;52.354;4.992;2023-02-28T10:14:28;7.15;;;4.68;;
68216;SDS011;55037;52.354;4.992;2023-02-28T10:17:04;6.90;;;4.13;;
68216;SDS011;55037;52.354;4.992;2023-02-28T10:19:42;7.75;;;3.70;;
68216;SDS011;55037;52.354;4.992;2023-02-28T10:22:40;9.93;;;3.73;;
68216;SDS011;55037;52.354;4.992;2023-02-28T10:25:23;6.80;;;3.72;;
68216;SDS011;55037;52.354;4.992;2023-02-28T10:27:53;5.07;;;3.55;;
68216;SDS011;55037;52.354;4.992;2023-02-28T10:30:48;6.25;;;3.47;;
68216;SDS011;55037;52.354;4.992;2023-02-28T10:33:41;7.40;;;3.20;;
68216;SDS011;55037;52.354;4.992;2023-02-28T10:36:04;7.23;;;3.40;;
68216;SDS011;55037;52.354;4.992;2023-02-28T10:38:35;4.80;;;3.15;;
68216;SDS011;55037;52.354;4.992;2023-02-28T10:41:08;6.40;;;3.63;;
68216;SDS011;55037;52.354;4.992;2023-02-28T10:44:17;4.38;;;2.78;;
68216;SDS011;55037;52.354;4.992;2023-02-28T10:46:52;4.22;;;2.53;;
68216;SDS011;55037;52.354;4.992;2023-02-28T10:49:21;5.10;;;3.13;;
68216;SDS011;55037;52.354;4.992;2023-02-28T10:51:55;4.38;;;3.00;;
68216;SDS011;55037;52.354;4.992;2023-02-28T10:54:31;3.67;;;2.42;;
68216;SDS011;55037;52.354;4.992;2023-02-28T10:57:05;4.38;;;2.88;;
68216;SDS011;55037;52.354;4.992;2023-02-28T10:59:52;4.50;;;3.05;;
68216;SDS011;55037;52.354;4.992;2023-02-28T11:02:35;4.60;;;2.53;;
68216;SDS011;55037;52.354;4.992;2023-02-28T11:05:21;5.68;;;2.95;;
68216;SDS011;55037;52.354;4.992;2023-02-28T11:07:53;5.55;;;3.00;;
68216;SDS011;55037;52.354;4.992;2023-02-28T11:11:03;4.40;;;2.55;;
68216;SDS011;55037;52.354;4.992;2023-02-28T11:13:35;6.40;;;2.55;;
68216;SDS011;55037;52.354;4.992;2023-02-28T11:16:06;6.40;;;3.00;;
68216;SDS011;55037;52.354;4.992;2023-02-28T11:21:03;4.85;;;2.60;;
68216;SDS011;55037;52.354;4.992;2023-02-28T11:23:32;3.47;;;2.38;;
68216;SDS011;55037;52.354;4.992;2023-02-28T11:26:04;3.95;;;2.58;;
68216;SDS011;55037;52.354;4.992;2023-02-28T11:28:32;4.27;;;2.63;;
68216;SDS011;55037;52.354;4.992;2023-02-28T11:33:49;4.57;;;2.67;;
68216;SDS011;55037;52.354;4.992;2023-02-28T11:36:26;5.40;;;2.65;;
68216;SDS011;55037;52.354;4.992;2023-02-28T11:39:07;3.95;;;2.90;;
68216;SDS011;55037;52.354;4.992;2023-02-28T11:46:58;4.93;;;3.50;;
68216;SDS011;55037;52.354;4.992;2023-02-28T12:03:12;4.10;;;3.00;;
68216;SDS011;55037;52.354;4.992;2023-02-28T12:08:49;4.72;;;2.60;;
68216;SDS011;55037;52.354;4.992;2023-02-28T12:20:08;4.55;;;3.20;;
68216;SDS011;55037;52.354;4.992;2023-02-28T12:23:19;6.22;;;3.63;;
68216;SDS011;55037;52.354;4.992;2023-02-28T12:28:51;4.10;;;3.10;;
68216;SDS011;55037;52.354;4.992;2023-02-28T12:31:25;5.57;;;3.38;;
68216;SDS011;55037;52.354;4.992;2023-02-28T12:34:10;4.75;;;3.25;;
68216;SDS011;55037;52.354;4.992;2023-02-28T12:36:42;4.07;;;3.30;;
68216;SDS011;55037;52.354;4.992;2023-02-28T12:39:23;4.87;;;3.20;;
68216;SDS011;55037;52.354;4.992;2023-02-28T12:42:01;5.55;;;3.42;;
68216;SDS011;55037;52.354;4.992;2023-02-28T12:44:42;5.80;;;3.65;;
68216;SDS011;55037;52.354;4.992;2023-02-28T12:47:15;3.53;;;2.92;;
68216;SDS011;55037;52.354;4.992;2023-02-28T12:49:51;4.43;;;3.10;;
68216;SDS011;55037;52.354;4.992;2023-02-28T12:52:52;4.17;;;3.30;;
68216;SDS011;55037;52.354;4.992;2023-02-28T12:56:00;5.07;;;3.42;;
68216;SDS011;55037;52.354;4.992;2023-02-28T12:58:36;4.05;;;3.00;;
68216;SDS011;55037;52.354;4.992;2023-02-28T13:01:15;4.68;;;3.20;;
68216;SDS011;55037;52.354;4.992;2023-02-28T13:10:10;3.83;;;3.25;;
68216;SDS011;55037;52.354;4.992;2023-02-28T13:12:37;3.63;;;2.90;;
68216;SDS011;55037;52.354;4.992;2023-02-28T13:15:24;4.13;;;2.97;;
68216;SDS011;55037;52.354;4.992;2023-02-28T13:17:55;4.18;;;3.33;;
68216;SDS011;55037;52.354;4.992;2023-02-28T13:20:29;4.37;;;3.50;;
68216;SDS011;55037;52.354;4.992;2023-02-28T13:23:03;4.78;;;3.30;;
68216;SDS011;55037;52.354;4.992;2023-02-28T13:26:17;5.45;;;3.33;;
68216;SDS011;55037;52.354;4.992;2023-02-28T13:31:19;4.05;;;3.33;;
68216;SDS011;55037;52.354;4.992;2023-02-28T13:36:27;5.10;;;3.55;;
68216;SDS011;55037;52.354;4.992;2023-02-28T13:38:57;3.97;;;3.00;;
68216;SDS011;55037;52.354;4.992;2023-02-28T13:43:59;4.15;;;3.30;;
68216;SDS011;55037;52.354;4.992;2023-02-28T13:46:33;6.07;;;3.37;;
68216;SDS011;55037;52.354;4.992;2023-02-28T13:49:30;4.53;;;3.72;;
68216;SDS011;55037;52.354;4.992;2023-02-28T14:00:45;4.53;;;3.80;;
68216;SDS011;55037;52.354;4.992;2023-02-28T14:06:26;5.32;;;4.28;;
68216;SDS011;55037;52.354;4.992;2023-02-28T14:09:01;4.50;;;3.40;;
68216;SDS011;55037;52.354;4.992;2023-02-28T14:11:44;4.05;;;3.60;;
68216;SDS011;55037;52.354;4.992;2023-02-28T14:17:05;4.68;;;3.80;;
68216;SDS011;55037;52.354;4.992;2023-02-28T14:19:36;6.03;;;3.47;;
68216;SDS011;55037;52.354;4.992;2023-02-28T14:24:57;4.07;;;3.50;;
68216;SDS011;55037;52.354;4.992;2023-02-28T14:30:59;4.20;;;2.97;;
68216;SDS011;55037;52.354;4.992;2023-02-28T14:36:37;3.83;;;2.90;;
68216;SDS011;55037;52.354;4.992;2023-02-28T14:39:12;3.83;;;3.05;;
68216;SDS011;55037;52.354;4.992;2023-02-28T14:41:46;4.13;;;3.03;;
68216;SDS011;55037;52.354;4.992;2023-02-28T14:44:18;4.32;;;3.10;;
68216;SDS011;55037;52.354;4.992;2023-02-28T14:46:48;4.00;;;2.88;;
68216;SDS011;55037;52.354;4.992;2023-02-28T14:49:44;4.88;;;2.78;;
68216;SDS011;55037;52.354;4.992;2023-02-28T14:52:17;4.00;;;2.90;;
68216;SDS011;55037;52.354;4.992;2023-02-28T14:54:46;4.53;;;2.70;;
68216;SDS011;55037;52.354;4.992;2023-02-28T14:57:23;4.57;;;2.70;;
68216;SDS011;55037;52.354;4.992;2023-02-28T15:02:41;4.45;;;2.60;;
68216;SDS011;55037;52.354;4.992;2023-02-28T15:07:39;6.75;;;3.53;;
68216;SDS011;55037;52.354;4.992;2023-02-28T15:10:25;5.45;;;3.00;;
68216;SDS011;55037;52.354;4.992;2023-02-28T15:12:54;5.38;;;2.88;;
68216;SDS011;55037;52.354;4.992;2023-02-28T15:15:26;4.75;;;2.67;;
68216;SDS011;55037;52.354;4.992;2023-02-28T15:21:13;4.77;;;2.70;;
68216;SDS011;55037;52.354;4.992;2023-02-28T15:26:54;4.65;;;2.55;;
68216;SDS011;55037;52.354;4.992;2023-02-28T15:29:27;3.90;;;2.80;;
68216;SDS011;55037;52.354;4.992;2023-02-28T15:32:01;4.45;;;2.80;;
68216;SDS011;55037;52.354;4.992;2023-02-28T15:34:42;3.97;;;2.53;;
68216;SDS011;55037;52.354;4.992;2023-02-28T15:37:27;5.63;;;2.88;;
68216;SDS011;55037;52.354;4.992;2023-02-28T15:40:16;4.75;;;2.50;;
68216;SDS011;55037;52.354;4.992;2023-02-28T15:48:37;3.50;;;2.50;;
68216;SDS011;55037;52.354;4.992;2023-02-28T15:51:15;4.45;;;2.58;;
68216;SDS011;55037;52.354;4.992;2023-02-28T15:53:47;4.20;;;2.70;;
68216;SDS011;55037;52.354;4.992;2023-02-28T15:58:48;4.85;;;2.50;;
68216;SDS011;55037;52.354;4.992;2023-02-28T16:01:18;4.28;;;2.90;;
68216;SDS011;55037;52.354;4.992;2023-02-28T16:03:51;4.90;;;2.90;;
68216;SDS011;55037;52.354;4.992;2023-02-28T16:08:53;4.03;;;2.67;;
68216;SDS011;55037;52.354;4.992;2023-02-28T16:11:21;3.90;;;2.65;;
68216;SDS011;55037;52.354;4.992;2023-02-28T16:13:48;4.55;;;2.60;;
68216;SDS011;55037;52.354;4.992;2023-02-28T16:16:18;5.72;;;2.75;;
68216;SDS011;55037;52.354;4.992;2023-02-28T16:18:47;4.20;;;2.38;;
68216;SDS011;55037;52.354;4.992;2023-02-28T16:21:15;4.32;;;2.70;;
68216;SDS011;55037;52.354;4.992;2023-02-28T16:23:43;4.82;;;3.17;;
68216;SDS011;55037;52.354;4.992;2023-02-28T16:26:21;5.25;;;3.03;;
68216;SDS011;55037;52.354;4.992;2023-02-28T16:28:50;4.93;;;2.47;;
68216;SDS011;55037;52.354;4.992;2023-02-28T16:31:18;3.47;;;2.50;;
68216;SDS011;55037;52.354;4.992;2023-02-28T16:33:46;5.25;;;3.20;;
68216;SDS011;55037;52.354;4.992;2023-02-28T16:36:15;3.80;;;2.58;;
68216;SDS011;55037;52.354;4.992;2023-02-28T16:38:43;3.40;;;2.60;;
68216;SDS011;55037;52.354;4.992;2023-02-28T16:41:16;4.85;;;2.70;;
68216;SDS011;55037;52.354;4.992;2023-02-28T16:43:46;4.45;;;2.90;;
68216;SDS011;55037;52.354;4.992;2023-02-28T16:46:16;4.43;;;3.03;;
68216;SDS011;55037;52.354;4.992;2023-02-28T16:48:44;4.50;;;3.10;;
68216;SDS011;55037;52.354;4.992;2023-02-28T16:51:12;5.03;;;3.05;;
68216;SDS011;55037;52.354;4.992;2023-02-28T16:53:41;5.40;;;3.10;;
68216;SDS011;55037;52.354;4.992;2023-02-28T16:56:18;6.13;;;3.13;;
68216;SDS011;55037;52.354;4.992;2023-02-28T16:58:50;5.03;;;3.17;;
68216;SDS011;55037;52.354;4.992;2023-02-28T17:01:18;4.47;;;2.83;;
68216;SDS011;55037;52.354;4.992;2023-02-28T17:03:48;6.43;;;3.20;;
68216;SDS011;55037;52.354;4.992;2023-02-28T17:06:17;5.15;;;3.25;;
68216;SDS011;55037;52.354;4.992;2023-02-28T17:08:49;4.60;;;3.20;;
68216;SDS011;55037;52.354;4.992;2023-02-28T17:11:17;6.93;;;3.38;;
68216;SDS011;55037;52.354;4.992;2023-02-28T17:13:46;5.33;;;3.43;;
68216;SDS011;55037;52.354;4.992;2023-02-28T17:16:30;5.13;;;3.28;;
68216;SDS011;55037;52.354;4.992;2023-02-28T17:19:01;5.10;;;3.28;;
68216;SDS011;55037;52.354;4.992;2023-02-28T17:21:30;4.65;;;3.40;;
68216;SDS011;55037;52.354;4.992;2023-02-28T17:23:59;7.20;;;4.07;;
68216;SDS011;55037;52.354;4.992;2023-02-28T17:26:27;7.03;;;3.90;;